createdAt,value
2022-11-24T04:08:55.477Z,88.74
2022-11-24T04:09:59.168Z,88.76
2022-11-24T04:11:02.740Z,88.77
2022-11-24T04:12:24.305Z,88.72
2022-11-24T04:13:27.884Z,88.72
2022-11-24T04:14:31.590Z,88.72
2022-11-24T04:15:35.265Z,88.65
2022-11-24T04:16:38.882Z,88.75
2022-11-24T04:17:42.929Z,88.46
2022-11-24T04:18:46.635Z,88.41
2022-11-24T04:19:50.318Z,88.25
2022-11-24T04:20:53.784Z,88.12
2022-11-24T04:21:57.374Z,88.03
2022-11-24T04:23:01.063Z,87.83
2022-11-24T04:24:04.505Z,87.69
2022-11-24T04:25:09.384Z,87.63
2022-11-24T04:26:13.278Z,87.63
2022-11-24T04:27:16.688Z,87.72
2022-11-24T04:28:20.189Z,87.62
2022-11-24T04:29:23.609Z,87.60
2022-11-24T04:30:28.527Z,87.50
2022-11-24T04:31:32.043Z,87.38
2022-11-24T04:33:46.494Z,87.37
2022-11-24T04:34:50.051Z,87.19
2022-11-24T04:35:53.755Z,87.21
2022-11-24T04:36:57.405Z,87.04
2022-11-24T04:38:03.753Z,86.99
2022-11-24T04:39:24.195Z,86.95
2022-11-24T04:40:13.345Z,86.95
2022-11-24T04:41:16.906Z,86.91
2022-11-24T04:42:20.581Z,86.80
2022-11-24T04:43:24.162Z,86.87
2022-11-24T04:44:27.728Z,86.83
2022-11-24T04:45:31.216Z,86.83
2022-11-24T04:46:34.901Z,86.82
2022-11-24T04:47:38.500Z,86.72
2022-11-24T04:48:42.093Z,86.66
2022-11-24T04:49:47.111Z,86.67
2022-11-24T04:50:50.997Z,86.64
2022-11-24T04:51:54.616Z,86.64
2022-11-24T04:52:58.134Z,86.72
2022-11-24T04:54:01.649Z,86.75
2022-11-24T04:55:05.671Z,86.76
2022-11-24T04:56:10.489Z,86.65
2022-11-24T04:57:19.035Z,86.70
2022-11-24T04:58:22.521Z,86.58
2022-11-24T04:59:26.013Z,86.52
2022-11-24T05:00:29.706Z,86.38
2022-11-24T05:01:33.544Z,86.33
2022-11-24T05:02:37.265Z,86.32
2022-11-24T05:03:40.739Z,86.41
2022-11-24T05:04:44.258Z,86.35
2022-11-24T05:05:47.816Z,86.36
2022-11-24T05:06:51.379Z,86.44
2022-11-24T05:07:55.046Z,86.51
2022-11-24T05:08:58.877Z,86.56
2022-11-24T05:10:20.561Z,86.50
2022-11-24T05:11:24.124Z,86.46
2022-11-24T05:12:29.725Z,86.41
2022-11-24T05:13:33.520Z,86.40
2022-11-24T05:14:37.025Z,86.43
2022-11-24T05:15:41.773Z,86.31
2022-11-24T05:16:45.527Z,86.35
2022-11-24T05:17:49.144Z,86.06
2022-11-24T05:18:52.641Z,86.01
2022-11-24T05:19:56.298Z,85.92
2022-11-24T05:20:59.981Z,85.81
2022-11-24T05:22:03.544Z,85.92
2022-11-24T05:23:08.236Z,86.07
2022-11-24T05:24:11.872Z,85.95
2022-11-24T05:25:15.359Z,85.84
2022-11-24T05:26:19.009Z,85.95
2022-11-24T05:27:22.446Z,85.82
2022-11-24T05:28:25.991Z,85.75
2022-11-24T05:29:29.518Z,85.91
2022-11-24T05:30:32.977Z,85.88
2022-11-24T05:31:36.449Z,85.77
2022-11-24T05:32:39.897Z,85.80
2022-11-24T05:33:43.646Z,86.10
2022-11-24T05:34:47.553Z,86.10
2022-11-24T05:35:51.259Z,85.91
2022-11-24T05:41:55.031Z,85.80
2022-11-24T05:42:58.488Z,86.02
2022-11-24T05:44:01.880Z,86.13
2022-11-24T05:45:06.048Z,86.12
2022-11-24T05:46:09.491Z,85.99
2022-11-24T05:47:13.056Z,86.13
2022-11-24T05:48:16.509Z,86.17
2022-11-24T05:49:19.867Z,86.31
2022-11-24T05:50:23.518Z,86.27
2022-11-24T05:51:26.940Z,86.20
2022-11-24T07:15:07.580Z,89.77
2022-11-24T07:16:20.410Z,89.49
2022-11-24T07:17:24.171Z,89.37
2022-11-24T07:18:27.631Z,89.07
2022-11-24T07:19:31.153Z,88.92
2022-11-24T07:20:35.130Z,89.08
2022-11-24T07:21:38.537Z,89.01
2022-11-24T07:22:42.075Z,89.08
2022-11-24T07:23:50.904Z,89.03
2022-11-24T07:24:54.585Z,88.94
2022-11-24T07:26:03.721Z,88.94
2022-11-24T07:27:03.807Z,88.75
2022-11-24T07:28:07.314Z,88.62
2022-11-24T07:29:10.710Z,88.53
2022-11-24T07:30:14.325Z,88.41
2022-11-24T07:31:19.803Z,88.44
2022-11-24T07:32:23.204Z,88.08
2022-11-24T07:33:26.584Z,88.08
2022-11-24T07:34:29.965Z,88.12
2022-11-24T07:35:33.343Z,87.85
2022-11-24T07:36:36.858Z,87.76
2022-11-24T07:37:40.342Z,87.71
2022-11-24T07:38:43.630Z,87.62
2022-11-24T07:39:47.026Z,87.36
2022-11-24T07:40:50.336Z,87.22
2022-11-24T07:41:53.813Z,87.07
2022-11-24T07:43:00.153Z,87.02
2022-11-24T07:44:03.895Z,86.99
2022-11-24T07:45:08.134Z,86.82
2022-11-24T07:46:13.976Z,86.77
2022-11-24T07:47:17.373Z,86.77
2022-11-24T07:48:20.742Z,86.87
2022-11-24T07:49:24.194Z,86.86
2022-11-24T07:50:27.578Z,86.90
2022-11-24T07:51:30.880Z,87.00
2022-11-24T07:52:34.354Z,86.91
2022-11-24T07:53:38.490Z,86.99
2022-11-24T07:54:41.834Z,87.09
2022-11-24T07:55:54.173Z,86.63
2022-11-24T07:56:57.586Z,86.28
2022-11-24T07:58:01.444Z,86.25
2022-11-24T07:59:04.910Z,86.42
2022-11-24T08:00:10.590Z,86.43
2022-11-24T08:01:16.228Z,86.47
2022-11-24T08:04:11.325Z,86.30
2022-11-24T08:05:15.123Z,86.15
2022-11-24T08:06:30.527Z,86.05
2022-11-24T08:07:24.481Z,86.08
2022-11-24T08:08:28.457Z,86.07
2022-11-24T08:09:31.930Z,86.16
2022-11-24T08:10:35.735Z,86.06
2022-11-24T08:11:39.375Z,85.88
2022-11-24T08:12:43.865Z,85.72
2022-11-24T08:13:47.672Z,85.77
2022-11-24T08:14:51.690Z,85.83
2022-11-24T08:15:55.224Z,85.83
2022-11-24T08:16:58.990Z,85.95
2022-11-24T08:18:02.562Z,85.83
2022-11-24T08:19:06.060Z,85.67
2022-11-24T08:20:10.455Z,85.51
2022-11-24T08:21:14.605Z,85.29
2022-11-24T08:22:18.080Z,85.08
2022-11-24T08:23:21.632Z,84.80
2022-11-24T08:24:25.223Z,84.64
2022-11-24T08:25:33.054Z,84.74
2022-11-24T08:26:36.605Z,84.78
2022-11-24T08:27:40.204Z,84.85
2022-11-24T08:28:44.822Z,84.62
2022-11-24T08:29:48.395Z,84.53
2022-11-24T08:35:24.014Z,84.39
2022-11-24T08:36:27.787Z,84.79
2022-11-24T08:37:32.368Z,84.77
2022-11-24T08:38:37.272Z,84.64
2022-11-24T08:39:40.750Z,84.59
2022-11-24T08:40:44.217Z,84.48
2022-11-24T08:41:47.848Z,84.43
2022-11-24T08:42:52.615Z,84.33
2022-11-24T08:43:57.438Z,84.34
2022-11-24T08:45:13.036Z,84.29
2022-11-24T08:46:08.692Z,84.46
2022-11-24T08:47:12.272Z,84.51
2022-11-24T08:48:15.759Z,84.43
2022-11-24T08:49:19.372Z,84.53
2022-11-24T08:50:24.863Z,84.59
2022-11-24T08:51:28.427Z,84.50
2022-11-24T08:52:31.956Z,84.60
2022-11-24T08:53:35.374Z,84.58
2022-11-24T08:54:40.232Z,84.50
2022-11-24T08:55:43.743Z,84.68
2022-11-24T08:56:49.019Z,84.72
2022-11-24T08:57:52.428Z,84.60
2022-11-24T08:58:56.885Z,84.42
2022-11-24T09:00:00.303Z,84.44
2022-11-24T09:01:10.171Z,84.42
2022-11-24T09:02:13.897Z,84.27
2022-11-24T09:03:17.387Z,84.19
2022-11-24T09:04:20.909Z,84.17
2022-11-24T09:05:50.785Z,84.05
2022-11-24T09:06:30.399Z,84.11
2022-11-24T09:07:33.983Z,84.19
2022-11-24T09:08:38.183Z,84.11
2022-11-24T09:09:41.642Z,84.11
2022-11-24T09:10:45.058Z,84.05
2022-11-24T09:11:48.450Z,84.04
2022-11-24T09:12:51.821Z,83.95
2022-11-24T09:13:55.485Z,83.88
2022-11-24T09:14:58.869Z,83.72
2022-11-24T09:16:04.036Z,83.62
2022-11-24T09:17:07.430Z,83.64
2022-11-24T09:18:10.811Z,83.79
2022-11-24T09:19:14.265Z,83.80
2022-11-24T09:20:17.680Z,83.93
2022-11-24T09:21:21.712Z,84.08
2022-11-24T09:22:25.017Z,83.98
2022-11-24T09:23:28.437Z,83.92
2022-11-24T09:24:31.841Z,83.96
2022-11-24T09:25:35.165Z,83.91
2022-11-24T09:26:43.139Z,83.96
2022-11-24T09:27:44.175Z,83.76
2022-11-24T09:28:48.061Z,83.74
2022-11-24T09:29:51.699Z,83.85
2022-11-24T09:30:55.096Z,83.71
2022-11-24T09:32:03.490Z,83.56
2022-11-24T09:33:03.801Z,83.31
2022-11-24T09:34:10.710Z,83.28
2022-11-24T09:35:14.151Z,83.31
2022-11-24T09:36:18.097Z,83.38
2022-11-24T09:37:21.526Z,83.33
2022-11-24T09:38:25.249Z,83.36
2022-11-24T09:39:28.724Z,83.28
2022-11-24T09:40:32.628Z,83.24
2022-11-24T09:42:08.239Z,83.12
2022-11-24T09:46:10.468Z,83.04
2022-11-24T09:47:35.589Z,82.89
2022-11-24T09:48:42.495Z,82.96
2022-11-24T09:51:04.185Z,82.65
2022-11-24T09:52:12.123Z,82.50
2022-11-24T09:53:38.487Z,82.60
2022-11-24T09:54:45.354Z,82.67
2022-11-24T09:56:20.874Z,82.45
2022-11-24T09:57:26.488Z,82.49
2022-11-24T09:58:51.036Z,82.47
2022-11-24T09:59:57.671Z,82.41
2022-11-24T10:01:01.299Z,82.20
2022-11-24T10:02:08.097Z,82.36
2022-11-24T10:03:18.596Z,82.58
2022-11-24T10:04:28.141Z,82.45
2022-11-24T10:05:38.199Z,82.34
2022-11-24T10:07:03.107Z,82.33
2022-11-24T10:08:10.799Z,82.29
2022-11-24T10:09:23.403Z,82.43
2022-11-24T10:10:30.297Z,82.38
2022-11-24T10:11:48.908Z,82.38
2022-11-24T10:12:58.720Z,82.33
2022-11-24T10:14:11.674Z,82.33
2022-11-24T10:15:27.482Z,82.32
2022-11-24T10:16:55.107Z,82.05
2022-11-24T10:18:13.248Z,81.66
2022-11-24T10:19:16.979Z,81.75
2022-11-24T10:20:32.677Z,81.77
2022-11-24T10:21:57.775Z,81.55
2022-11-24T10:23:25.574Z,81.52
2022-11-24T10:24:32.353Z,81.27
2022-11-24T10:25:41.973Z,81.24
2022-11-24T10:26:54.812Z,81.16
2022-11-24T10:28:07.162Z,80.95
2022-11-24T10:29:17.045Z,81.12
2022-11-24T10:30:23.374Z,81.07
2022-11-24T10:31:33.392Z,80.87
2022-11-24T10:32:39.688Z,80.56
2022-11-24T10:33:43.622Z,80.63
2022-11-24T10:34:50.069Z,80.89
2022-11-24T10:35:59.690Z,80.89
2022-11-24T10:37:15.581Z,80.93
2022-11-24T10:38:31.591Z,80.97
2022-11-24T10:40:03.996Z,80.88
2022-11-24T10:41:10.206Z,80.85
2022-11-24T10:42:31.728Z,80.59
2022-11-24T10:43:35.008Z,80.66
2022-11-24T10:44:40.888Z,80.73
2022-11-24T10:45:44.441Z,80.75
2022-11-24T10:46:47.863Z,80.81
2022-11-24T10:47:51.060Z,80.93
2022-11-24T10:49:00.750Z,80.90
2022-11-24T10:50:19.339Z,80.98
2022-11-24T10:51:32.117Z,80.84
2022-11-24T10:52:38.984Z,80.79
2022-11-24T10:53:43.112Z,80.92
2022-11-24T10:55:01.610Z,80.98
2022-11-24T10:56:05.456Z,81.01
2022-11-24T10:57:09.229Z,81.06
2022-11-24T10:58:15.141Z,80.88
2022-11-24T10:59:31.427Z,80.68
2022-11-24T11:00:35.475Z,80.78
2022-11-24T11:01:38.789Z,80.98
2022-11-24T11:02:42.117Z,81.00
2022-11-24T11:03:54.988Z,80.85
2022-11-24T11:04:58.746Z,80.91
2022-11-24T11:06:05.601Z,80.56
2022-11-24T11:07:20.996Z,80.27
2022-11-24T11:08:27.480Z,80.12
2022-11-24T11:09:31.817Z,79.97
2022-11-24T11:10:35.474Z,80.10
2022-11-24T11:11:39.421Z,80.08
2022-11-24T11:12:44.235Z,80.05
2022-11-24T11:14:02.957Z,79.96
2022-11-24T11:15:21.813Z,79.99
2022-11-24T11:16:45.371Z,79.99
2022-11-24T11:17:50.013Z,80.13
2022-11-24T11:18:53.614Z,80.41
2022-11-24T11:20:02.933Z,80.60
2022-11-24T11:21:06.795Z,80.76
2022-11-24T11:22:14.093Z,80.89
2022-11-24T11:23:34.847Z,81.02
2022-11-24T11:24:39.888Z,81.01
2022-11-24T11:25:43.363Z,80.93
2022-11-24T11:26:46.693Z,81.00
2022-11-24T11:27:50.152Z,80.98
2022-11-24T11:31:33.020Z,80.86
2022-11-24T11:34:08.403Z,80.77
2022-11-24T11:35:03.332Z,80.99
2022-11-24T11:36:10.575Z,81.09
2022-11-24T11:37:15.311Z,81.08
2022-11-24T11:38:19.676Z,81.13
2022-11-24T11:40:49.585Z,81.48
2022-11-24T11:42:37.934Z,81.48
2022-11-24T11:43:30.772Z,81.29
2022-11-24T11:44:40.381Z,81.32
2022-11-24T11:45:45.732Z,81.33
2022-11-24T11:46:49.061Z,81.54
2022-11-24T11:48:02.295Z,81.59
2022-11-24T11:49:05.652Z,81.64
2022-11-24T11:50:14.157Z,81.67
2022-11-24T11:51:30.074Z,81.65
2022-11-24T11:53:03.881Z,81.50
2022-11-24T11:54:19.236Z,81.43
2022-11-24T11:55:38.158Z,81.43
2022-11-24T11:56:44.636Z,81.49
2022-11-24T11:58:06.967Z,81.58
2022-11-24T11:59:33.497Z,81.49
2022-11-24T12:00:43.185Z,81.52
2022-11-24T12:02:01.818Z,81.54
2022-11-24T12:03:24.015Z,81.52
2022-11-24T12:04:39.789Z,81.52
2022-11-24T12:05:49.527Z,81.42
2022-11-24T12:07:11.310Z,81.65
2022-11-24T12:09:18.729Z,81.58
2022-11-24T12:10:09.133Z,81.49
2022-11-24T12:11:27.721Z,81.46
2022-11-24T12:13:01.171Z,81.46
2022-11-24T12:14:22.896Z,81.51
2022-11-24T12:15:44.962Z,81.44
2022-11-24T12:16:57.631Z,81.29
2022-11-24T12:18:27.089Z,81.26
2022-11-24T12:19:31.106Z,81.32
2022-11-24T12:20:40.916Z,81.32
2022-11-24T12:22:02.900Z,81.22
2022-11-24T12:23:15.798Z,81.18
2022-11-24T12:24:38.911Z,81.10
2022-11-24T12:25:57.289Z,81.05
2022-11-24T12:27:07.234Z,81.07
2022-11-24T12:28:32.186Z,81.05
2022-11-24T12:30:12.084Z,81.06
2022-11-24T12:31:41.699Z,80.91
2022-11-24T12:33:13.426Z,80.92
2022-11-24T12:34:26.380Z,80.99
2022-11-24T12:35:43.680Z,81.08
2022-11-24T12:37:03.572Z,81.18
2022-11-24T12:38:31.203Z,81.06
2022-11-24T12:39:37.513Z,81.04
2022-11-24T12:41:18.103Z,81.24
2022-11-24T12:42:25.189Z,81.24
2022-11-24T12:43:41.274Z,81.34
2022-11-24T12:45:13.863Z,81.30
2022-11-24T12:46:32.667Z,81.32
2022-11-24T12:47:59.893Z,81.34
2022-11-24T12:49:28.647Z,81.65
2022-11-24T12:50:37.512Z,81.56
2022-11-24T12:51:44.766Z,81.43
2022-11-24T12:53:06.810Z,81.39
2022-11-24T12:54:14.503Z,81.36
2022-11-24T12:55:22.996Z,81.31
2022-11-24T12:56:30.162Z,81.50
2022-11-24T12:57:43.959Z,81.35
2022-11-24T12:59:17.250Z,81.44
2022-11-24T13:00:24.096Z,81.40
2022-11-24T13:01:55.475Z,81.28
2022-11-24T13:03:04.436Z,81.15
2022-11-24T13:04:32.046Z,81.16
2022-11-24T13:05:45.542Z,81.23
2022-11-24T13:06:55.217Z,81.24
2022-11-24T13:08:02.305Z,81.23
2022-11-24T13:09:13.346Z,81.25
2022-11-24T13:10:58.418Z,81.21
2022-11-24T13:11:43.725Z,81.04
2022-11-24T13:12:55.871Z,80.96
2022-11-24T13:14:22.136Z,81.15
2022-11-24T13:15:45.202Z,81.21
2022-11-24T13:16:37.130Z,81.33
2022-11-24T13:17:59.483Z,81.27
2022-11-24T13:18:58.438Z,81.38
2022-11-24T13:20:17.025Z,81.36
2022-11-24T13:21:50.348Z,81.49
2022-11-24T13:22:57.133Z,81.37
2022-11-24T13:24:20.494Z,81.36
2022-11-24T13:25:31.153Z,81.38
2022-11-24T13:26:45.102Z,81.39
2022-11-24T23:55:59.925Z,91.16
2022-11-24T23:57:03.441Z,90.79
2022-11-24T23:58:06.982Z,90.63
2022-11-24T23:59:11.898Z,90.38
